createdAt,value
2023-02-16T00:01:52.692Z,0.50
2023-02-16T00:04:21.353Z,0.50
2023-02-16T00:06:48.879Z,0.40
2023-02-16T00:09:16.413Z,0.40
2023-02-16T00:12:02.215Z,0.50
2023-02-16T00:14:29.413Z,0.50
2023-02-16T00:16:58.453Z,0.50
2023-02-16T00:19:40.050Z,0.40
2023-02-16T00:22:07.674Z,0.40
2023-02-16T00:24:34.582Z,0.50
2023-02-16T00:27:01.548Z,0.50
2023-02-16T00:29:35.138Z,0.50
2023-02-16T00:32:03.851Z,0.50
2023-02-16T00:34:34.371Z,0.50
2023-02-16T00:37:07.057Z,0.50
2023-02-16T00:39:33.997Z,0.60
2023-02-16T00:42:06.345Z,0.60
2023-02-16T00:44:38.854Z,0.60
2023-02-16T00:47:14.312Z,0.50
2023-02-16T00:49:41.036Z,0.40
2023-02-16T00:52:27.449Z,0.10
2023-02-16T00:54:54.181Z,0.20
2023-02-16T00:57:21.170Z,0.30
2023-02-16T00:59:54.250Z,0.30
2023-02-16T01:02:20.931Z,0.40
2023-02-16T01:04:47.732Z,0.20
2023-02-16T01:07:35.033Z,0.20
2023-02-16T01:10:20.379Z,0.20
2023-02-16T01:12:47.099Z,0.30
2023-02-16T01:15:16.237Z,0.30
2023-02-16T01:17:42.936Z,0.30
2023-02-16T01:20:22.136Z,0.30
2023-02-16T01:22:48.881Z,0.20
2023-02-16T01:25:15.921Z,-0.10
2023-02-16T01:27:43.280Z,0.10
2023-02-16T01:30:16.360Z,0.30
2023-02-16T01:32:43.116Z,0.30
2023-02-16T01:35:10.559Z,0.40
2023-02-16T01:37:37.238Z,0.40
2023-02-16T01:40:04.235Z,0.50
2023-02-16T01:42:49.713Z,0.30
2023-02-16T01:45:26.590Z,0.40
2023-02-16T01:47:56.018Z,0.50
2023-02-16T01:50:30.740Z,0.50
2023-02-16T01:53:02.107Z,0.50
2023-02-16T01:55:31.242Z,0.60
2023-02-16T01:58:19.569Z,0.60
2023-02-16T02:00:49.205Z,0.30
2023-02-16T02:03:38.696Z,0.10
2023-02-16T02:06:12.470Z,0.10
2023-02-16T02:08:45.173Z,0.20
2023-02-16T02:11:20.512Z,0.30
2023-02-16T02:14:00.905Z,0.20
2023-02-16T02:16:28.481Z,0.30
2023-02-16T02:18:55.290Z,0.40
2023-02-16T02:22:31.214Z,0.40
2023-02-16T02:25:19.723Z,0.40
2023-02-16T02:28:24.167Z,0.50
2023-02-16T02:31:18.851Z,0.40
2023-02-16T02:33:54.570Z,0.30
2023-02-16T02:36:36.245Z,-0.10
2023-02-16T02:39:32.615Z,-0.20
2023-02-16T02:42:18.479Z,0.20
2023-02-16T02:44:55.381Z,0.30
2023-02-16T02:47:22.071Z,0.20
2023-02-16T02:49:51.088Z,-0.10
2023-02-16T02:52:18.511Z,0.00
2023-02-16T02:55:06.272Z,0.20
2023-02-16T02:57:57.352Z,0.30
2023-02-16T03:00:41.293Z,0.20
2023-02-16T03:03:23.166Z,0.00
2023-02-16T03:05:57.100Z,0.00
2023-02-16T03:08:26.871Z,0.20
2023-02-16T03:11:16.822Z,0.30
2023-02-16T03:13:47.856Z,0.30
2023-02-16T03:16:21.542Z,0.30
2023-02-16T03:19:07.429Z,0.30
2023-02-16T03:21:54.292Z,0.30
2023-02-16T03:24:47.159Z,0.30
2023-02-16T03:27:38.652Z,0.20
2023-02-16T03:30:08.045Z,-0.10
2023-02-16T03:32:35.032Z,-0.20
2023-02-16T03:35:01.861Z,-0.20
2023-02-16T03:37:28.530Z,-0.30
2023-02-16T03:40:13.874Z,-0.40
2023-02-16T03:42:47.776Z,-0.30
2023-02-16T03:45:14.425Z,-0.10
2023-02-16T03:47:41.052Z,0.00
2023-02-16T03:50:08.140Z,-0.30
2023-02-16T03:52:34.774Z,-0.20
2023-02-16T03:55:01.418Z,0.00
2023-02-16T03:57:28.156Z,-0.10
2023-02-16T03:59:54.854Z,-0.10
2023-02-16T04:02:21.654Z,-0.10
2023-02-16T04:04:48.358Z,0.00
2023-02-16T04:07:15.004Z,0.00
2023-02-16T04:09:41.681Z,0.00
2023-02-16T04:12:27.782Z,0.00
2023-02-16T04:14:54.462Z,0.00
2023-02-16T04:17:21.093Z,-0.20
2023-02-16T04:19:47.736Z,-0.20
2023-02-16T04:22:14.476Z,-0.10
2023-02-16T04:24:41.137Z,-0.10
2023-02-16T04:27:07.927Z,-0.20
2023-02-16T04:29:34.562Z,-0.20
2023-02-16T04:32:01.318Z,-0.20
2023-02-16T04:34:27.990Z,-0.10
2023-02-16T04:36:54.602Z,-0.10
2023-02-16T04:39:21.785Z,-0.10
2023-02-16T04:41:48.409Z,-0.10
2023-02-16T04:44:15.100Z,-0.40
2023-02-16T04:46:41.847Z,-1.00
2023-02-16T04:49:08.544Z,-1.10
2023-02-16T04:51:35.217Z,-0.70
2023-02-16T04:54:01.939Z,-0.50
2023-02-16T04:56:28.622Z,-0.30
2023-02-16T04:58:56.425Z,-0.30
2023-02-16T05:01:26.105Z,-0.30
2023-02-16T05:03:53.310Z,-0.60
2023-02-16T05:06:20.467Z,-0.70
2023-02-16T05:08:47.256Z,-0.90
2023-02-16T05:11:33.017Z,-1.00
2023-02-16T05:14:18.976Z,-1.10
2023-02-16T05:16:46.350Z,-1.00
2023-02-16T05:19:13.760Z,-1.00
2023-02-16T05:21:40.463Z,-0.90
2023-02-16T05:24:11.738Z,-0.90
2023-02-16T05:26:42.138Z,-0.90
2023-02-16T05:29:08.896Z,-0.80
2023-02-16T05:31:35.645Z,-0.50
2023-02-16T05:34:02.380Z,-0.80
2023-02-16T05:36:29.092Z,-1.30
2023-02-16T05:38:56.748Z,-1.20
2023-02-16T05:41:23.517Z,-0.80
2023-02-16T05:44:01.671Z,-0.80
2023-02-16T05:46:29.607Z,-0.90
2023-02-16T05:48:56.331Z,-1.00
2023-02-16T05:51:23.778Z,-1.20
2023-02-16T05:53:50.729Z,-1.50
2023-02-16T05:56:18.298Z,-1.40
2023-02-16T05:58:45.195Z,-1.20
2023-02-16T06:01:12.380Z,-1.40
2023-02-16T06:03:39.138Z,-1.30
2023-02-16T06:06:06.467Z,-1.30
2023-02-16T06:08:33.887Z,-1.30
2023-02-16T06:11:00.658Z,-1.30
2023-02-16T06:13:27.454Z,-1.30
2023-02-16T06:15:56.237Z,-1.30
2023-02-16T06:18:24.350Z,-1.30
2023-02-16T06:20:51.228Z,-1.10
2023-02-16T06:23:18.188Z,-1.20
2023-02-16T06:25:48.763Z,-1.20
2023-02-16T06:28:15.978Z,-1.20
2023-02-16T06:30:42.661Z,-1.30
2023-02-16T06:33:09.533Z,-1.20
2023-02-16T06:35:36.173Z,-1.10
2023-02-16T06:38:02.859Z,-0.80
2023-02-16T06:40:29.567Z,-0.60
2023-02-16T06:42:56.276Z,-0.50
2023-02-16T06:45:23.002Z,-0.80
2023-02-16T06:47:49.629Z,-1.10
2023-02-16T06:50:17.671Z,-1.20
2023-02-16T06:52:44.561Z,-1.30
2023-02-16T06:55:11.469Z,-1.40
2023-02-16T06:57:38.157Z,-1.30
2023-02-16T07:00:07.572Z,-1.40
2023-02-16T07:02:35.638Z,-1.40
2023-02-16T07:05:03.281Z,-1.50
2023-02-16T07:07:31.026Z,-1.40
2023-02-16T07:09:58.219Z,-1.40
2023-02-16T07:12:24.957Z,-1.30
2023-02-16T07:14:51.558Z,-1.20
2023-02-16T07:17:18.208Z,-1.20
2023-02-16T07:19:44.866Z,-1.10
2023-02-16T07:22:12.120Z,-1.10
2023-02-16T07:24:38.789Z,-1.00
2023-02-16T07:27:08.591Z,-1.00
2023-02-16T07:29:35.463Z,-0.90
2023-02-16T07:32:03.790Z,-0.50
2023-02-16T07:34:30.914Z,-0.30
2023-02-16T07:36:57.864Z,-0.10
2023-02-16T07:39:24.724Z,-0.20
2023-02-16T07:41:51.357Z,0.00
2023-02-16T07:44:18.000Z,0.10
2023-02-16T07:46:44.744Z,0.10
2023-02-16T07:49:11.401Z,0.20
2023-02-16T07:51:38.057Z,0.20
2023-02-16T07:54:04.855Z,0.30
2023-02-16T07:56:35.413Z,0.40
2023-02-16T07:59:03.756Z,0.50
2023-02-16T08:01:31.562Z,0.60
2023-02-16T08:03:58.336Z,0.70
2023-02-16T08:06:24.972Z,0.70
2023-02-16T08:08:51.717Z,0.80
2023-02-16T08:11:23.853Z,0.80
2023-02-16T08:13:50.953Z,0.90
2023-02-16T08:16:26.716Z,1.00
2023-02-16T08:18:56.245Z,1.00
2023-02-16T08:21:25.788Z,1.00
2023-02-16T08:23:55.382Z,1.10
2023-02-16T08:26:24.617Z,1.10
2023-02-16T08:28:51.669Z,1.20
2023-02-16T08:31:24.733Z,1.20
2023-02-16T08:33:56.494Z,1.20
2023-02-16T08:36:34.850Z,1.30
2023-02-16T08:39:04.166Z,1.30
2023-02-16T08:41:33.657Z,1.40
2023-02-16T08:44:01.048Z,1.40
2023-02-16T08:46:29.550Z,1.50
2023-02-16T08:48:59.604Z,1.60
2023-02-16T08:51:28.910Z,1.70
2023-02-16T08:53:57.103Z,1.80
2023-02-16T08:56:23.874Z,1.80
2023-02-16T08:58:50.641Z,1.90
2023-02-16T09:01:17.695Z,2.00
2023-02-16T09:03:46.218Z,2.10
2023-02-16T09:06:15.570Z,2.20
2023-02-16T09:08:43.214Z,2.30
2023-02-16T09:11:13.198Z,2.40
2023-02-16T09:13:44.689Z,2.40
2023-02-16T09:16:15.574Z,2.50
2023-02-16T09:18:42.614Z,2.50
2023-02-16T09:21:11.919Z,2.60
2023-02-16T09:23:40.540Z,2.70
2023-02-16T09:26:09.601Z,2.80
2023-02-16T09:28:40.144Z,2.90
2023-02-16T09:31:34.222Z,3.10
2023-02-16T09:34:05.841Z,3.20
2023-02-16T09:36:32.567Z,3.30
2023-02-16T09:39:00.010Z,3.30
2023-02-16T09:41:37.763Z,3.40
2023-02-16T09:44:38.108Z,3.50
2023-02-16T09:47:11.282Z,3.60
2023-02-16T09:49:43.963Z,3.70
2023-02-16T09:52:29.509Z,3.80
2023-02-16T09:54:59.389Z,3.90
2023-02-16T09:57:25.965Z,4.00
2023-02-16T10:00:23.316Z,4.10
2023-02-16T10:02:59.290Z,4.10
2023-02-16T10:05:50.834Z,4.20
2023-02-16T10:08:27.554Z,4.30
2023-02-16T10:11:34.489Z,4.50
2023-02-16T10:14:08.275Z,4.70
2023-02-16T10:16:42.685Z,4.90
2023-02-16T10:19:31.066Z,4.90
2023-02-16T10:22:04.530Z,5.10
2023-02-16T10:24:53.297Z,5.20
2023-02-16T10:27:22.774Z,5.30
2023-02-16T10:29:49.488Z,5.40
2023-02-16T10:32:28.897Z,5.50
2023-02-16T10:35:17.480Z,5.70
2023-02-16T10:37:52.646Z,5.80
2023-02-16T10:40:28.747Z,5.90
2023-02-16T10:43:01.042Z,6.00
2023-02-16T10:45:31.932Z,6.10
2023-02-16T10:47:58.933Z,6.20
2023-02-16T10:50:40.859Z,6.30
2023-02-16T10:53:18.965Z,6.40
2023-02-16T10:55:45.789Z,6.60
2023-02-16T10:58:26.971Z,6.70
2023-02-16T11:01:00.643Z,6.90
2023-02-16T11:03:33.386Z,7.10
2023-02-16T11:06:36.422Z,7.20
2023-02-16T11:09:04.545Z,7.50
2023-02-16T11:11:38.502Z,7.60
2023-02-16T11:14:09.431Z,7.60
2023-02-16T11:16:36.203Z,7.80
2023-02-16T11:19:17.743Z,7.90
2023-02-16T11:21:47.879Z,8.00
2023-02-16T11:24:24.756Z,8.10
2023-02-16T11:27:14.572Z,8.20
2023-02-16T11:29:41.398Z,8.30
2023-02-16T11:32:10.556Z,8.40
2023-02-16T11:34:42.905Z,8.40
2023-02-16T11:37:27.426Z,8.50
2023-02-16T11:40:00.369Z,8.40
2023-02-16T11:42:34.888Z,8.60
2023-02-16T11:45:04.324Z,8.70
2023-02-16T11:47:37.504Z,8.90
2023-02-16T11:50:18.926Z,9.10
2023-02-16T11:52:49.562Z,9.30
2023-02-16T11:55:35.967Z,9.50
2023-02-16T11:58:27.626Z,9.60
2023-02-16T12:01:12.982Z,9.70
2023-02-16T12:04:03.819Z,9.70
2023-02-16T12:07:00.507Z,9.80
2023-02-16T12:09:39.218Z,9.90
2023-02-16T12:12:08.699Z,10.10
2023-02-16T12:14:49.402Z,10.20
2023-02-16T12:17:40.742Z,10.20
2023-02-16T12:20:22.083Z,10.30
2023-02-16T12:22:51.242Z,10.30
2023-02-16T12:25:33.402Z,10.30
2023-02-16T12:28:03.167Z,10.30
2023-02-16T12:30:55.245Z,10.40
2023-02-16T12:33:38.548Z,10.30
2023-02-16T12:36:14.427Z,10.20
2023-02-16T12:39:12.767Z,10.20
2023-02-16T12:41:54.051Z,10.20
2023-02-16T12:44:35.873Z,10.20
2023-02-16T12:47:08.091Z,10.30
2023-02-16T12:49:53.653Z,10.20
2023-02-16T12:52:38.872Z,10.50
2023-02-16T12:55:27.551Z,10.50
2023-02-16T12:58:01.555Z,10.50
2023-02-16T13:00:56.073Z,10.60
2023-02-16T13:03:54.302Z,10.70
2023-02-16T13:06:43.868Z,10.80
2023-02-16T13:09:29.047Z,11.10
2023-02-16T13:12:04.875Z,11.30
2023-02-16T13:14:34.826Z,11.40
2023-02-16T13:17:15.948Z,11.40
2023-02-16T13:19:44.532Z,11.40
2023-02-16T13:22:49.795Z,11.60
2023-02-16T13:25:48.907Z,11.90
2023-02-16T13:28:46.029Z,12.00
2023-02-16T13:31:35.418Z,12.00
2023-02-16T13:34:02.513Z,12.20
2023-02-16T13:36:46.277Z,12.40
2023-02-16T13:39:34.656Z,12.40
2023-02-16T13:42:19.518Z,12.50
2023-02-16T13:44:56.035Z,12.50
2023-02-16T13:47:31.059Z,12.40
2023-02-16T13:50:00.327Z,12.20
2023-02-16T13:52:31.687Z,12.20
2023-02-16T13:55:04.566Z,12.30
2023-02-16T13:57:56.532Z,12.20
2023-02-16T14:00:40.370Z,12.10
2023-02-16T14:03:32.048Z,12.10
2023-02-16T14:06:32.351Z,12.20
2023-02-16T14:09:14.188Z,12.00
2023-02-16T14:11:53.116Z,11.90
2023-02-16T14:14:37.929Z,11.80
2023-02-16T14:17:19.889Z,11.80
2023-02-16T14:20:06.878Z,11.70
2023-02-16T14:22:45.442Z,11.70
2023-02-16T14:25:23.970Z,11.60
2023-02-16T14:28:02.664Z,11.50
2023-02-16T14:30:47.099Z,11.50
2023-02-16T14:33:16.782Z,11.50
2023-02-16T14:35:58.403Z,11.50
2023-02-16T14:38:43.685Z,11.50
2023-02-16T14:41:22.680Z,11.30
2023-02-16T14:44:02.322Z,11.30
2023-02-16T14:46:59.126Z,11.40
2023-02-16T14:49:55.146Z,11.40
2023-02-16T14:52:41.091Z,11.30
2023-02-16T14:55:45.953Z,11.30
2023-02-16T14:58:31.555Z,11.40
2023-02-16T15:01:10.019Z,11.30
2023-02-16T15:03:46.313Z,11.30
2023-02-16T15:06:37.182Z,11.30
2023-02-16T15:09:13.756Z,11.30
2023-02-16T15:12:12.034Z,11.10
2023-02-16T15:15:04.522Z,11.10
2023-02-16T15:17:44.903Z,11.10
2023-02-16T15:20:24.956Z,11.00
2023-02-16T15:22:54.371Z,11.10
2023-02-16T15:25:27.655Z,11.00
2023-02-16T15:28:27.843Z,11.10
2023-02-16T15:30:58.366Z,11.00
2023-02-16T15:33:32.516Z,10.90
2023-02-16T15:36:01.687Z,10.90
2023-02-16T15:39:04.147Z,10.80
2023-02-16T15:41:38.292Z,10.70
2023-02-16T15:44:07.564Z,10.80
2023-02-16T15:46:40.453Z,10.90
2023-02-16T15:49:14.352Z,10.90
2023-02-16T15:51:43.073Z,10.80
2023-02-16T15:54:35.569Z,10.70
2023-02-16T15:57:06.952Z,10.70
2023-02-16T15:59:38.760Z,10.70
2023-02-16T16:02:13.925Z,10.80
2023-02-16T16:04:42.390Z,10.70
2023-02-16T16:07:14.414Z,10.70
2023-02-16T16:09:42.499Z,10.70
2023-02-16T16:12:13.625Z,10.60
2023-02-16T16:14:48.458Z,10.60
2023-02-16T16:17:17.111Z,10.60
2023-02-16T16:19:43.755Z,10.60
2023-02-16T16:22:34.451Z,10.70
2023-02-16T16:25:02.001Z,10.60
2023-02-16T16:27:32.520Z,10.60
2023-02-16T16:30:28.864Z,10.60
2023-02-16T16:33:08.565Z,10.60
2023-02-16T16:35:44.232Z,10.60
2023-02-16T16:38:26.819Z,10.70
2023-02-16T16:41:03.420Z,10.60
2023-02-16T16:43:46.742Z,10.60
2023-02-16T16:46:24.906Z,10.40
2023-02-16T16:48:59.979Z,10.40
2023-02-16T16:51:31.384Z,10.50
2023-02-16T16:54:04.205Z,10.50
2023-02-16T16:56:35.617Z,10.40
2023-02-16T16:59:02.646Z,10.40
2023-02-16T17:01:30.061Z,10.30
2023-02-16T17:03:59.699Z,10.30
2023-02-16T17:06:27.506Z,10.30
2023-02-16T17:08:55.211Z,10.20
2023-02-16T17:11:34.572Z,10.10
2023-02-16T17:14:20.499Z,10.10
2023-02-16T17:16:50.800Z,10.10
2023-02-16T17:19:23.415Z,10.10
2023-02-16T17:21:50.094Z,10.00
2023-02-16T17:24:16.938Z,9.90
2023-02-16T17:26:43.743Z,10.00
2023-02-16T17:29:10.676Z,10.00
2023-02-16T17:31:37.527Z,10.00
2023-02-16T17:34:04.563Z,10.10
2023-02-16T17:36:32.320Z,10.00
2023-02-16T17:38:58.983Z,10.00
2023-02-16T17:41:28.330Z,10.00
2023-02-16T17:43:55.165Z,9.90
2023-02-16T17:46:23.527Z,9.90
2023-02-16T17:48:53.808Z,9.80
2023-02-16T17:51:22.499Z,9.90
2023-02-16T17:53:49.282Z,10.00
2023-02-16T17:56:17.885Z,10.00
2023-02-16T17:58:44.855Z,9.90
2023-02-16T18:01:14.813Z,9.80
2023-02-16T18:03:41.842Z,9.80
2023-02-16T18:06:13.700Z,9.90
2023-02-16T18:08:40.799Z,9.80
2023-02-16T18:11:07.493Z,9.90
2023-02-16T18:13:34.217Z,9.80
2023-02-16T18:16:03.846Z,9.80
2023-02-16T18:18:32.806Z,9.80
2023-02-16T18:20:59.574Z,9.80
2023-02-16T18:23:26.252Z,9.80
2023-02-16T18:25:53.144Z,9.80
2023-02-16T18:28:24.874Z,9.90
2023-02-16T18:30:51.497Z,9.90
2023-02-16T18:33:23.786Z,10.00
2023-02-16T18:35:56.268Z,9.90
2023-02-16T18:38:24.012Z,9.80
2023-02-16T18:40:53.295Z,9.80
2023-02-16T18:43:20.992Z,9.70
2023-02-16T18:45:47.986Z,9.60
2023-02-16T18:48:15.125Z,9.60
2023-02-16T18:50:41.835Z,9.60
2023-02-16T18:53:08.533Z,9.60
2023-02-16T18:55:35.613Z,9.50
2023-02-16T18:58:07.640Z,9.50
2023-02-16T19:00:35.224Z,9.50
2023-02-16T19:03:02.990Z,9.60
2023-02-16T19:05:30.114Z,9.60
2023-02-16T19:07:56.926Z,9.60
2023-02-16T19:10:24.941Z,9.70
2023-02-16T19:12:51.694Z,9.70
2023-02-16T19:15:18.418Z,9.70
2023-02-16T19:17:45.084Z,9.70
2023-02-16T19:20:16.649Z,9.70
2023-02-16T19:22:43.683Z,9.70
2023-02-16T19:25:10.358Z,9.60
2023-02-16T19:27:36.953Z,9.70
2023-02-16T19:30:04.661Z,9.70
2023-02-16T19:32:31.339Z,9.70
2023-02-16T19:34:58.031Z,9.70
2023-02-16T19:37:24.786Z,9.70
2023-02-16T19:39:51.625Z,9.70
2023-02-16T19:42:18.262Z,9.80
2023-02-16T19:44:44.875Z,9.70
2023-02-16T19:47:11.542Z,9.60
2023-02-16T19:49:38.523Z,9.70
2023-02-16T19:52:05.532Z,9.70
2023-02-16T19:54:34.974Z,9.70
2023-02-16T19:57:02.688Z,9.70
2023-02-16T19:59:30.366Z,9.70
2023-02-16T20:01:58.969Z,9.70
2023-02-16T20:04:26.021Z,9.80
2023-02-16T20:06:54.460Z,9.80
2023-02-16T20:09:21.936Z,9.90
2023-02-16T20:11:48.822Z,9.90
2023-02-16T20:14:15.449Z,9.80
2023-02-16T20:16:42.427Z,9.80
2023-02-16T20:19:09.120Z,9.80
2023-02-16T20:21:35.909Z,9.80
2023-02-16T20:24:05.459Z,9.80
2023-02-16T20:26:38.757Z,9.80
2023-02-16T20:29:07.743Z,9.80
2023-02-16T20:31:41.198Z,9.80
2023-02-16T20:34:09.036Z,9.80
2023-02-16T20:36:37.138Z,9.80
2023-02-16T20:39:05.452Z,9.80
2023-02-16T20:41:32.188Z,9.80
2023-02-16T20:43:59.272Z,9.80
2023-02-16T20:46:26.054Z,9.70
2023-02-16T20:48:52.882Z,9.70
2023-02-16T20:51:20.209Z,9.70
2023-02-16T20:53:46.989Z,9.70
2023-02-16T20:56:21.298Z,9.80
2023-02-16T20:58:49.645Z,9.70
2023-02-16T21:01:26.331Z,9.70
2023-02-16T21:03:55.552Z,9.70
2023-02-16T21:06:22.710Z,9.70
2023-02-16T21:08:49.348Z,9.70
2023-02-16T21:11:16.779Z,9.70
2023-02-16T21:13:43.867Z,9.70
2023-02-16T21:16:11.424Z,9.70
2023-02-16T21:18:40.415Z,9.70
2023-02-16T21:21:08.180Z,9.70
2023-02-16T21:23:34.940Z,9.70
2023-02-16T21:26:05.978Z,9.70
2023-02-16T21:28:33.574Z,9.60
2023-02-16T21:31:06.039Z,9.70
2023-02-16T21:33:33.381Z,9.70
2023-02-16T21:36:09.028Z,9.70
2023-02-16T21:38:36.341Z,9.70
2023-02-16T21:41:24.061Z,9.70
2023-02-16T21:43:52.558Z,9.70
2023-02-16T21:46:19.289Z,9.70
2023-02-16T21:48:48.948Z,9.70
2023-02-16T21:51:21.969Z,9.70
2023-02-16T21:53:48.807Z,9.70
2023-02-16T21:56:23.641Z,9.70
2023-02-16T21:58:50.438Z,9.70
2023-02-16T22:01:28.964Z,9.70
2023-02-16T22:03:58.535Z,9.70
2023-02-16T22:06:28.417Z,9.70
2023-02-16T22:08:55.112Z,9.60
2023-02-16T22:11:22.035Z,9.70
2023-02-16T22:13:53.547Z,9.60
2023-02-16T22:16:20.658Z,9.60
2023-02-16T22:18:47.866Z,9.60
2023-02-16T22:21:15.430Z,9.70
2023-02-16T22:23:42.290Z,9.60
2023-02-16T22:26:19.351Z,9.70
2023-02-16T22:28:45.949Z,9.70
2023-02-16T22:31:12.740Z,9.60
2023-02-16T22:33:39.366Z,9.70
2023-02-16T22:36:13.734Z,9.70
2023-02-16T22:38:42.024Z,9.60
2023-02-16T22:41:09.759Z,9.70
2023-02-16T22:43:37.382Z,9.60
2023-02-16T22:46:09.632Z,9.70
2023-02-16T22:48:36.779Z,9.60
2023-02-16T22:51:05.758Z,9.70
2023-02-16T22:53:32.824Z,9.60
2023-02-16T22:55:59.600Z,9.60
2023-02-16T22:58:27.344Z,9.60
2023-02-16T23:00:54.096Z,9.60
2023-02-16T23:03:20.759Z,9.60
2023-02-16T23:05:47.675Z,9.50
2023-02-16T23:08:14.442Z,9.50
2023-02-16T23:10:59.592Z,9.50
2023-02-16T23:13:28.451Z,9.50
2023-02-16T23:15:56.260Z,9.50
2023-02-16T23:18:24.015Z,9.40
2023-02-16T23:20:50.786Z,9.40
2023-02-16T23:23:17.459Z,9.40
2023-02-16T23:25:49.302Z,9.40
2023-02-16T23:28:16.094Z,9.40
2023-02-16T23:30:45.402Z,9.30
2023-02-16T23:33:13.570Z,9.30
2023-02-16T23:35:41.894Z,9.30
2023-02-16T23:38:13.365Z,9.30
2023-02-16T23:40:40.622Z,9.30
2023-02-16T23:43:07.833Z,9.30
2023-02-16T23:45:35.317Z,9.30
2023-02-16T23:48:02.077Z,9.30
2023-02-16T23:50:28.783Z,9.30
2023-02-16T23:52:55.512Z,9.30
2023-02-16T23:55:22.201Z,9.40
2023-02-16T23:57:48.865Z,9.40
